Time;durP1;ratioP1;P1;durP2;ratioP2;P2;SDS_P1;SDS_P2;PMS_P1;PMS_P2;Temp;Humidity;BMP_temperature;BMP_pressure;BME280_temperature;BME280_humidity;BME280_pressure;Samples;Min_cycle;Max_cycle;Signal;HPM_P1;HPM_P2
2022/04/17 00:01:42;;;;;;;6.33;3.50;;;5.50;99.90;;;;;;5063953;28;20246;-66
2022/04/17 00:04:31;;;;;;;7.00;3.77;;;5.40;99.90;;;;;;5064493;28;20770;-64
2022/04/17 00:07:21;;;;;;;6.17;3.53;;;5.40;99.90;;;;;;5074790;28;20227;-64
2022/04/17 00:10:09;;;;;;;5.80;3.33;;;5.40;99.90;;;;;;5073376;28;20217;-63
2022/04/17 00:12:58;;;;;;;6.57;3.10;;;5.40;99.90;;;;;;5061519;28;20215;-63
2022/04/17 00:15:47;;;;;;;5.47;3.40;;;5.40;99.90;;;;;;5050579;28;20242;-60
2022/04/17 00:18:36;;;;;;;5.43;3.30;;;5.30;99.90;;;;;;5074078;28;20279;-63
2022/04/17 00:21:25;;;;;;;6.43;3.50;;;5.30;99.90;;;;;;5073346;28;20706;-62
2022/04/17 00:24:15;;;;;;;6.63;3.37;;;5.20;99.90;;;;;;5057217;28;20721;-64
2022/04/17 00:27:04;;;;;;;6.90;3.37;;;5.30;99.90;;;;;;5063490;28;20223;-64
2022/04/17 00:29:54;;;;;;;5.43;3.20;;;5.30;99.90;;;;;;5071966;28;20226;-64
2022/04/17 00:32:43;;;;;;;5.07;3.00;;;5.10;99.90;;;;;;5076966;28;20495;-67
2022/04/17 00:35:32;;;;;;;7.17;3.20;;;5.10;99.90;;;;;;5077022;28;20667;-63
2022/04/17 00:38:21;;;;;;;5.63;3.33;;;5.20;99.90;;;;;;5075456;28;20234;-63
2022/04/17 00:41:15;;;;;;;5.10;3.20;;;5.10;99.90;;;;;;5059069;28;20220;-65
2022/04/17 00:44:03;;;;;;;7.03;3.40;;;5.20;99.90;;;;;;5066813;28;20224;-65
2022/04/17 00:46:52;;;;;;;7.80;3.37;;;5.10;99.90;;;;;;5074135;28;20255;-64
2022/04/17 00:49:41;;;;;;;7.03;3.43;;;5.10;99.90;;;;;;5079211;28;20218;-65
2022/04/17 00:52:30;;;;;;;6.77;3.40;;;5.10;99.90;;;;;;5072352;28;20224;-63
2022/04/17 00:55:18;;;;;;;5.43;3.33;;;5.10;99.90;;;;;;5063428;28;20230;-63
2022/04/17 00:58:16;;;;;;;5.33;3.10;;;5.00;99.90;;;;;;5076189;28;20317;-62
2022/04/17 01:01:05;;;;;;;3.93;3.00;;;5.10;99.90;;;;;;5069582;28;20230;-63
2022/04/17 01:03:54;;;;;;;5.97;3.50;;;5.00;99.90;;;;;;5073315;28;20665;-64
2022/04/17 01:06:47;;;;;;;7.57;3.43;;;5.00;99.90;;;;;;5075894;28;20231;-66
2022/04/17 01:09:36;;;;;;;6.13;3.50;;;4.90;99.90;;;;;;5073417;28;20226;-64
2022/04/17 01:12:28;;;;;;;6.67;3.33;;;5.00;99.90;;;;;;5075155;28;20943;-63
2022/04/17 01:15:18;;;;;;;6.00;3.10;;;4.90;99.90;;;;;;5062396;28;20253;-62
2022/04/17 01:18:07;;;;;;;7.00;3.20;;;5.00;99.90;;;;;;5067178;28;20232;-64
2022/04/17 01:20:56;;;;;;;5.33;3.10;;;4.80;99.90;;;;;;5061107;28;20230;-63
2022/04/17 01:27:06;;;;;;;5.67;3.30;;;4.80;99.90;;;;;;5070115;28;20218;-64
2022/04/17 01:29:54;;;;;;;5.40;3.00;;;4.90;99.90;;;;;;5074174;28;21459;-63
2022/04/17 01:32:43;;;;;;;6.37;3.20;;;4.80;99.90;;;;;;5068747;28;20881;-64
2022/04/17 01:35:32;;;;;;;5.03;2.90;;;4.80;99.90;;;;;;5074244;28;20873;-65
2022/04/17 01:38:21;;;;;;;6.23;3.03;;;4.70;99.90;;;;;;5069212;28;20222;-65
2022/04/17 01:41:12;;;;;;;5.50;2.90;;;4.90;99.90;;;;;;5060889;28;20685;-64
2022/04/17 01:44:01;;;;;;;5.17;2.93;;;4.90;99.90;;;;;;5073138;28;20256;-64
2022/04/17 01:46:50;;;;;;;5.80;3.07;;;4.70;99.90;;;;;;5056603;28;20338;-64
2022/04/17 01:49:38;;;;;;;6.20;3.23;;;4.60;99.90;;;;;;5058484;28;20215;-66
2022/04/17 01:52:29;;;;;;;5.83;2.90;;;4.70;99.90;;;;;;5074779;28;20262;-64
2022/04/17 01:55:20;;;;;;;6.90;3.30;;;4.50;99.90;;;;;;5060669;28;20220;-65
2022/04/17 01:58:10;;;;;;;4.53;2.90;;;4.60;99.90;;;;;;5027428;28;20242;-64
2022/04/17 02:00:59;;;;;;;5.90;3.20;;;4.50;99.90;;;;;;5035319;28;20218;-64
2022/04/17 02:03:47;;;;;;;7.27;3.50;;;4.60;99.90;;;;;;5046082;28;20232;-65
2022/04/17 02:06:39;;;;;;;5.87;3.00;;;4.50;99.90;;;;;;5047541;28;20235;-64
2022/04/17 02:09:28;;;;;;;6.13;3.27;;;4.50;99.90;;;;;;5059097;28;20868;-64
2022/04/17 02:12:16;;;;;;;4.80;3.57;;;4.50;99.90;;;;;;5058457;28;20228;-64
2022/04/17 02:15:09;;;;;;;6.53;3.33;;;4.70;99.90;;;;;;5054923;28;20226;-63
2022/04/17 02:17:58;;;;;;;6.80;3.37;;;4.50;99.90;;;;;;5050062;28;20352;-65
2022/04/17 02:20:47;;;;;;;5.27;3.60;;;4.40;99.90;;;;;;5054905;28;20225;-66
2022/04/17 02:23:35;;;;;;;7.33;3.60;;;4.50;99.90;;;;;;5073932;28;20237;-64
2022/04/17 02:26:24;;;;;;;7.13;3.40;;;4.40;99.90;;;;;;5074212;28;20249;-63
2022/04/17 02:29:13;;;;;;;7.23;3.40;;;4.30;99.90;;;;;;5066446;28;20225;-62
2022/04/17 02:32:03;;;;;;;6.33;3.40;;;4.20;99.90;;;;;;5048727;28;20230;-62
2022/04/17 02:34:52;;;;;;;5.83;3.67;;;4.30;99.90;;;;;;5044613;28;20230;-62
2022/04/17 02:37:40;;;;;;;5.53;3.37;;;4.30;99.90;;;;;;5041533;28;20218;-66
2022/04/17 02:40:29;;;;;;;4.73;3.10;;;4.10;99.90;;;;;;5042632;28;20219;-63
2022/04/17 02:43:17;;;;;;;6.63;3.70;;;4.20;99.90;;;;;;5036257;28;20885;-62
2022/04/17 02:46:06;;;;;;;6.40;3.60;;;4.20;99.90;;;;;;5053013;28;20237;-63
2022/04/17 02:48:57;;;;;;;7.53;3.83;;;4.30;99.90;;;;;;5040759;28;20667;-62
2022/04/17 02:51:45;;;;;;;7.03;3.93;;;4.50;99.90;;;;;;5072277;28;20227;-64
2022/04/17 02:54:34;;;;;;;7.43;3.17;;;4.30;99.90;;;;;;5060891;28;20221;-62
2022/04/17 02:57:23;;;;;;;9.13;4.00;;;4.20;99.90;;;;;;5076894;28;20228;-62
2022/04/17 03:00:12;;;;;;;7.23;4.03;;;4.20;99.90;;;;;;5072753;28;20229;-63
2022/04/17 03:06:10;;;;;;;6.47;3.97;;;4.10;99.90;;;;;;5055596;28;20241;-62
2022/04/17 03:08:59;;;;;;;5.87;3.90;;;4.10;99.90;;;;;;5060065;28;20933;-62
2022/04/17 03:11:48;;;;;;;5.47;3.63;;;4.00;99.90;;;;;;5074807;28;20225;-62
2022/04/17 03:14:36;;;;;;;8.07;3.70;;;3.90;99.90;;;;;;5074182;28;20231;-62
2022/04/17 03:17:25;;;;;;;5.07;3.40;;;3.80;99.90;;;;;;5077008;28;20224;-62
2022/04/17 03:20:14;;;;;;;6.63;3.97;;;4.00;99.90;;;;;;5059658;28;20268;-62
2022/04/17 03:23:04;;;;;;;9.40;4.50;;;4.00;99.90;;;;;;5054158;28;20230;-62
2022/04/17 03:25:53;;;;;;;9.80;4.13;;;3.90;99.90;;;;;;5072605;28;20226;-62
2022/04/17 03:28:42;;;;;;;7.53;3.73;;;4.10;99.90;;;;;;5077868;28;20364;-63
2022/04/17 03:31:30;;;;;;;8.97;4.17;;;4.00;99.90;;;;;;5071954;28;20232;-63
2022/04/17 03:34:19;;;;;;;7.77;4.20;;;4.00;99.90;;;;;;5077702;28;20272;-62
2022/04/17 03:37:10;;;;;;;8.03;3.90;;;3.90;99.90;;;;;;5076013;28;20934;-61
2022/04/17 03:40:00;;;;;;;9.57;4.43;;;3.90;99.90;;;;;;5061691;28;20706;-61
2022/04/17 03:42:53;;;;;;;8.17;4.20;;;3.80;99.90;;;;;;5076117;28;20268;-62
2022/04/17 03:45:46;;;;;;;9.27;4.33;;;4.00;99.90;;;;;;5073247;28;20241;-61
2022/04/17 03:48:35;;;;;;;12.53;4.20;;;3.90;99.90;;;;;;5062233;28;20229;-62
2022/04/17 03:51:24;;;;;;;5.43;3.60;;;3.80;99.90;;;;;;5073608;28;20240;-62
2022/04/17 03:54:13;;;;;;;6.33;4.20;;;3.90;99.90;;;;;;5060438;28;20215;-62
2022/04/17 03:57:07;;;;;;;6.33;4.13;;;3.80;99.90;;;;;;5073643;28;20229;-62
2022/04/17 03:59:55;;;;;;;7.20;4.00;;;3.90;99.90;;;;;;5076589;28;20787;-62
2022/04/17 04:02:48;;;;;;;9.30;4.30;;;3.90;99.90;;;;;;5050567;28;20326;-62
2022/04/17 04:05:37;;;;;;;8.23;4.40;;;3.80;99.90;;;;;;5069983;28;20298;-62
2022/04/17 04:08:26;;;;;;;6.63;3.60;;;3.90;99.90;;;;;;5062821;28;20237;-62
2022/04/17 04:11:15;;;;;;;6.87;4.07;;;3.90;99.90;;;;;;5066683;28;20238;-61
2022/04/17 04:14:05;;;;;;;7.67;4.13;;;4.00;99.90;;;;;;5074175;28;20223;-63
2022/04/17 04:16:54;;;;;;;6.87;4.30;;;4.20;99.90;;;;;;5073242;28;20294;-63
2022/04/17 04:19:45;;;;;;;7.63;4.40;;;4.30;99.90;;;;;;5079320;28;20238;-63
2022/04/17 04:22:34;;;;;;;6.23;4.20;;;4.20;99.90;;;;;;5077403;28;20230;-62
2022/04/17 04:25:23;;;;;;;9.63;4.30;;;4.30;99.90;;;;;;5081262;28;20688;-62
2022/04/17 04:31:19;;;;;;;8.20;4.00;;;4.10;99.90;;;;;;5076186;28;20215;-63
2022/04/17 04:34:08;;;;;;;12.43;5.13;;;4.30;99.90;;;;;;5073781;28;20221;-62
2022/04/17 04:36:57;;;;;;;6.60;4.10;;;4.00;99.90;;;;;;5076127;28;20224;-62
2022/04/17 04:39:46;;;;;;;6.20;4.20;;;4.00;99.90;;;;;;5078524;28;20232;-63
2022/04/17 04:42:35;;;;;;;8.77;3.97;;;4.10;99.90;;;;;;5073491;28;20239;-63
2022/04/17 04:51:40;;;;;;;9.77;4.30;;;4.00;99.90;;;;;;5056897;28;20300;-63
2022/04/17 04:54:29;;;;;;;8.13;3.90;;;4.30;99.90;;;;;;5049355;28;20219;-63
2022/04/17 04:57:17;;;;;;;8.40;4.60;;;4.30;99.90;;;;;;5041352;28;20252;-63
2022/04/17 05:00:08;;;;;;;8.00;4.13;;;4.30;99.90;;;;;;5048901;28;20225;-64
2022/04/17 05:02:57;;;;;;;8.17;4.20;;;4.30;99.90;;;;;;5074956;28;20729;-62
2022/04/17 05:05:47;;;;;;;6.93;4.50;;;4.40;99.90;;;;;;5056810;28;20332;-64
2022/04/17 05:08:35;;;;;;;10.73;4.93;;;4.30;99.90;;;;;;5055836;28;20228;-64
2022/04/17 05:11:24;;;;;;;8.63;4.97;;;4.30;99.90;;;;;;5067874;28;20223;-62
2022/04/17 05:14:13;;;;;;;10.33;4.83;;;4.30;99.90;;;;;;5065165;28;20225;-62
2022/04/17 05:17:01;;;;;;;10.47;4.70;;;4.10;99.90;;;;;;5070747;28;20233;-62
2022/04/17 05:19:50;;;;;;;9.20;4.57;;;4.10;99.90;;;;;;5077069;28;20233;-63
2022/04/17 05:22:40;;;;;;;10.03;4.60;;;4.10;99.90;;;;;;5071344;28;20234;-64
2022/04/17 05:25:34;;;;;;;9.70;5.27;;;4.10;99.90;;;;;;5075608;28;20226;-64
2022/04/17 05:28:23;;;;;;;9.03;4.70;;;3.90;99.90;;;;;;5072814;28;20217;-63
2022/04/17 05:31:11;;;;;;;7.27;4.70;;;3.90;99.90;;;;;;5058934;28;20236;-62
2022/04/17 05:34:00;;;;;;;9.27;4.93;;;4.10;99.90;;;;;;5071624;28;20700;-64
2022/04/17 05:36:49;;;;;;;7.33;4.60;;;4.10;99.90;;;;;;5062901;28;20321;-61
2022/04/17 05:39:40;;;;;;;12.03;5.20;;;4.20;99.90;;;;;;5064716;28;20221;-61
2022/04/17 05:42:36;;;;;;;11.97;5.70;;;4.20;99.90;;;;;;5071797;28;20267;-64
2022/04/17 05:45:24;;;;;;;10.47;5.10;;;4.10;99.90;;;;;;5076005;28;20276;-64
2022/04/17 05:48:14;;;;;;;12.43;5.00;;;4.10;99.90;;;;;;5078003;28;20226;-64
2022/04/17 05:51:04;;;;;;;7.17;4.80;;;4.20;99.90;;;;;;5069582;28;20238;-65
2022/04/17 05:53:52;;;;;;;11.10;5.07;;;4.10;99.90;;;;;;5077251;28;20366;-64
2022/04/17 05:56:43;;;;;;;7.17;4.73;;;4.50;99.90;;;;;;5053331;28;20234;-65
2022/04/17 05:59:32;;;;;;;8.17;4.60;;;4.80;99.90;;;;;;5064447;28;20290;-64
2022/04/17 06:02:21;;;;;;;7.97;4.50;;;5.20;99.90;;;;;;5066611;28;20226;-60
2022/04/17 06:05:11;;;;;;;7.00;4.50;;;5.60;99.90;;;;;;5068675;28;20227;-62
2022/04/17 06:08:00;;;;;;;9.57;5.20;;;5.40;99.90;;;;;;5072601;28;20219;-62
2022/04/17 06:10:50;;;;;;;8.67;5.03;;;5.80;99.90;;;;;;5046822;28;20531;-64
2022/04/17 06:13:40;;;;;;;9.00;4.77;;;5.90;99.90;;;;;;5065703;28;20417;-62
2022/04/17 06:16:29;;;;;;;9.90;4.90;;;6.00;99.90;;;;;;5074436;28;20223;-63
2022/04/17 06:19:18;;;;;;;10.40;5.00;;;6.10;99.90;;;;;;5068884;28;20235;-63
2022/04/17 06:22:10;;;;;;;6.90;4.70;;;6.20;99.90;;;;;;5057795;28;20706;-62
2022/04/17 06:25:02;;;;;;;7.13;4.57;;;6.20;99.90;;;;;;5058679;28;20246;-63
2022/04/17 06:27:51;;;;;;;13.23;5.30;;;6.00;99.90;;;;;;5039608;28;20582;-63
2022/04/17 06:30:46;;;;;;;9.77;5.07;;;5.60;99.90;;;;;;5053170;28;20470;-64
2022/04/17 06:33:35;;;;;;;11.07;5.50;;;6.20;99.90;;;;;;5040769;28;20332;-72
2022/04/17 06:36:24;;;;;;;7.20;5.20;;;6.50;99.90;;;;;;5048050;28;20746;-63
2022/04/17 06:39:13;;;;;;;10.83;5.83;;;6.40;99.90;;;;;;5037733;28;20244;-66
2022/04/17 06:42:01;;;;;;;8.43;5.03;;;6.50;99.90;;;;;;5055228;28;20216;-66
2022/04/17 06:44:50;;;;;;;10.80;5.33;;;6.40;99.90;;;;;;5045188;28;20224;-74
2022/04/17 06:47:40;;;;;;;10.23;5.30;;;6.90;99.90;;;;;;5043476;28;20241;-71
2022/04/17 06:50:29;;;;;;;9.93;5.70;;;6.90;99.90;;;;;;5035181;28;20331;-64
2022/04/17 06:53:18;;;;;;;10.97;6.00;;;7.30;99.90;;;;;;5044379;28;20648;-64
2022/04/17 06:56:11;;;;;;;12.43;5.20;;;7.20;99.90;;;;;;5041995;28;20327;-67
2022/04/17 06:58:59;;;;;;;9.90;5.03;;;7.60;99.90;;;;;;5055068;28;20307;-65
2022/04/17 07:01:48;;;;;;;8.07;5.07;;;7.50;99.90;;;;;;5056741;28;20232;-65
2022/04/17 07:04:38;;;;;;;8.17;5.27;;;8.00;99.90;;;;;;5054153;28;20369;-65
2022/04/17 07:07:27;;;;;;;11.90;5.43;;;8.50;99.90;;;;;;5044489;28;20764;-64
2022/04/17 07:10:18;;;;;;;9.13;5.87;;;8.70;99.90;;;;;;5034043;28;20243;-65
2022/04/17 07:13:07;;;;;;;7.97;5.43;;;8.70;99.90;;;;;;5054312;28;20220;-64
2022/04/17 07:15:56;;;;;;;8.93;5.88;;;9.20;99.90;;;;;;5057362;28;21003;-64
2022/04/17 07:18:45;;;;;;;8.60;5.67;;;8.80;99.90;;;;;;5053762;28;20232;-64
2022/04/17 07:21:35;;;;;;;9.27;6.10;;;9.40;99.90;;;;;;5042352;28;20678;-63
2022/04/17 07:24:27;;;;;;;11.07;6.35;;;10.10;99.90;;;;;;5052234;28;20234;-63
2022/04/17 07:27:16;;;;;;;12.95;5.85;;;10.30;99.90;;;;;;5075237;28;20220;-63
2022/04/17 07:30:09;;;;;;;9.15;5.50;;;10.10;99.90;;;;;;5071581;28;20220;-63
2022/04/17 07:32:59;;;;;;;10.40;5.85;;;10.60;99.90;;;;;;5077495;28;20215;-63
2022/04/17 07:35:48;;;;;;;9.10;6.15;;;11.10;99.90;;;;;;5051177;28;20222;-63
2022/04/17 07:38:38;;;;;;;9.30;6.03;;;11.30;99.90;;;;;;5079633;28;20219;-62
2022/04/17 07:41:26;;;;;;;11.60;6.15;;;11.80;99.90;;;;;;5076834;28;20484;-64
2022/04/17 07:44:15;;;;;;;10.48;6.78;;;12.60;99.90;;;;;;5073189;28;20224;-64
2022/04/17 07:47:05;;;;;;;10.30;7.03;;;12.60;98.90;;;;;;5067714;28;20243;-63
2022/04/17 07:49:57;;;;;;;9.57;6.30;;;12.80;98.70;;;;;;5063857;28;20908;-62
2022/04/17 07:52:46;;;;;;;10.30;6.57;;;13.20;95.70;;;;;;5070967;28;20225;-64
2022/04/17 07:55:36;;;;;;;9.23;6.15;;;14.30;93.00;;;;;;5061955;28;20713;-63
2022/04/17 07:58:33;;;;;;;11.73;6.43;;;14.60;89.80;;;;;;5066677;28;20216;-63
2022/04/17 08:01:22;;;;;;;10.10;5.70;;;14.20;90.90;;;;;;5072084;28;20594;-62
2022/04/17 08:04:11;;;;;;;7.88;5.55;;;15.10;88.60;;;;;;5076865;28;20238;-63
2022/04/17 08:07:03;;;;;;;8.23;5.63;;;14.70;89.20;;;;;;5073356;28;20279;-63
2022/04/17 08:09:52;;;;;;;8.00;5.00;;;15.10;86.90;;;;;;5070813;28;20642;-62
2022/04/17 08:12:44;;;;;;;7.38;5.15;;;16.60;81.80;;;;;;5058720;28;20228;-63
2022/04/17 08:15:32;;;;;;;7.07;5.32;;;18.70;74.20;;;;;;5076026;28;20267;-63
2022/04/17 08:18:21;;;;;;;7.45;5.25;;;19.30;70.50;;;;;;5061569;28;20236;-63
2022/04/17 08:21:10;;;;;;;9.48;5.70;;;19.50;66.80;;;;;;5072795;28;20298;-63
2022/04/17 08:24:00;;;;;;;8.27;5.80;;;18.30;65.90;;;;;;5069044;28;20238;-68
2022/04/17 08:26:49;;;;;;;8.25;5.75;;;18.40;67.10;;;;;;5072787;28;20223;-76
2022/04/17 08:29:39;;;;;;;7.93;5.30;;;19.40;66.10;;;;;;5072511;28;20219;-66
2022/04/17 08:32:27;;;;;;;9.52;5.45;;;20.20;62.90;;;;;;5077356;28;20399;-65
2022/04/17 08:35:16;;;;;;;7.15;5.18;;;21.20;59.50;;;;;;5065442;28;20223;-64
2022/04/17 08:38:05;;;;;;;6.57;5.13;;;18.20;61.10;;;;;;5061338;28;20234;-65
2022/04/17 08:40:57;;;;;;;6.75;4.93;;;19.90;62.90;;;;;;5076240;28;20225;-66
2022/04/17 08:43:47;;;;;;;8.45;5.45;;;20.40;59.40;;;;;;5054908;28;20671;-65
2022/04/17 08:46:37;;;;;;;6.35;4.90;;;19.60;59.30;;;;;;5056225;28;20217;-65
2022/04/17 08:49:25;;;;;;;6.13;5.18;;;21.20;57.10;;;;;;5056700;28;20224;-66
2022/04/17 08:52:17;;;;;;;5.78;4.07;;;18.80;59.70;;;;;;5069117;28;20679;-67
2022/04/17 08:55:07;;;;;;;6.63;3.95;;;17.40;58.40;;;;;;5065192;28;20211;-67
2022/04/17 08:57:55;;;;;;;5.35;3.80;;;17.20;60.50;;;;;;5075123;28;20259;-67
2022/04/17 09:00:44;;;;;;;5.90;4.15;;;21.10;57.30;;;;;;5059931;28;20217;-66
2022/04/17 09:03:34;;;;;;;4.88;4.05;;;21.90;53.50;;;;;;5065312;28;20227;-65
2022/04/17 09:06:23;;;;;;;6.88;4.43;;;22.90;52.00;;;;;;5053901;28;20230;-68
2022/04/17 09:09:12;;;;;;;6.45;4.85;;;22.00;53.10;;;;;;5061974;28;20615;-67
2022/04/17 09:12:01;;;;;;;6.72;5.10;;;19.20;55.10;;;;;;5066487;28;20220;-67
2022/04/17 09:14:49;;;;;;;5.60;4.07;;;20.10;56.00;;;;;;5057759;28;20226;-66
2022/04/17 09:17:38;;;;;;;4.82;4.22;;;19.20;53.50;;;;;;5059612;28;20230;-67
2022/04/17 09:20:29;;;;;;;4.63;3.45;;;20.80;54.90;;;;;;5061011;28;20572;-66
2022/04/17 09:23:33;;;;;;;4.18;3.40;;;20.90;50.10;;;;;;5071521;28;20850;-66
2022/04/17 09:26:25;;;;;;;5.72;3.60;;;18.20;52.30;;;;;;5061214;28;20220;-67
2022/04/17 09:29:19;;;;;;;4.68;3.42;;;18.60;54.80;;;;;;5051667;28;20368;-67
2022/04/17 09:32:09;;;;;;;7.20;4.43;;;21.20;51.80;;;;;;5070689;28;20232;-67
2022/04/17 09:34:58;;;;;;;4.78;3.60;;;20.20;51.40;;;;;;5071133;28;20229;-68
2022/04/17 09:37:48;;;;;;;6.00;3.60;;;18.60;53.10;;;;;;5066348;28;20296;-67
2022/04/17 09:40:37;;;;;;;4.25;3.80;;;20.20;52.70;;;;;;5066634;28;20949;-66
2022/04/17 09:43:34;;;;;;;4.72;3.53;;;21.30;50.00;;;;;;5057704;28;20543;-67
2022/04/17 09:46:22;;;;;;;5.25;3.78;;;19.90;52.80;;;;;;5059789;28;20234;-67
2022/04/17 09:49:11;;;;;;;3.88;3.40;;;21.70;49.30;;;;;;5057287;28;20917;-68
2022/04/17 09:52:07;;;;;;;3.75;3.30;;;19.20;51.40;;;;;;5070874;28;20223;-67
2022/04/17 09:54:57;;;;;;;3.20;2.90;;;20.40;50.50;;;;;;5059889;28;20233;-66
2022/04/17 09:57:45;;;;;;;4.50;3.40;;;19.50;48.70;;;;;;5070168;28;20299;-67
2022/04/17 10:00:56;;;;;;;5.38;3.90;;;19.30;52.00;;;;;;5069584;28;20231;-66
2022/04/17 10:03:46;;;;;;;3.92;3.10;;;15.80;54.00;;;;;;5068633;28;20665;-66
2022/04/17 10:06:35;;;;;;;4.50;3.45;;;16.40;56.10;;;;;;5067160;28;20884;-65
2022/04/17 10:09:24;;;;;;;3.67;3.17;;;16.20;53.70;;;;;;5055534;28;20231;-68
2022/04/17 10:12:19;;;;;;;3.58;3.03;;;16.30;55.10;;;;;;5048514;28;20227;-67
2022/04/17 10:15:09;;;;;;;3.03;2.50;;;14.00;56.00;;;;;;5058954;28;20228;-68
2022/04/17 10:18:03;;;;;;;2.67;2.17;;;13.20;57.50;;;;;;5058787;28;20226;-67
2022/04/17 10:20:51;;;;;;;1.75;1.65;;;12.90;55.30;;;;;;5070584;28;20212;-66
2022/04/17 10:23:43;;;;;;;3.67;2.30;;;13.10;55.20;;;;;;5048839;28;20788;-70
2022/04/17 10:26:38;;;;;;;3.88;2.22;;;13.50;55.90;;;;;;5055452;28;20322;-64
2022/04/17 10:29:33;;;;;;;2.50;2.17;;;13.50;56.10;;;;;;5049602;28;21025;-65
2022/04/17 10:33:00;;;;;;;2.50;2.17;;;13.40;56.20;;;;;;5056620;28;20220;-64
2022/04/17 10:36:04;;;;;;;3.50;2.10;;;13.50;55.10;;;;;;5053151;28;20224;-64
2022/04/17 10:39:09;;;;;;;3.58;2.22;;;12.50;55.50;;;;;;5048286;28;20220;-66
2022/04/17 10:41:59;;;;;;;2.70;2.20;;;13.70;55.00;;;;;;5054047;28;20583;-65
2022/04/17 10:45:04;;;;;;;4.45;2.45;;;13.80;54.90;;;;;;5050914;28;20745;-64
2022/04/17 10:48:03;;;;;;;2.83;2.60;;;14.20;54.00;;;;;;5064798;28;20690;-68
2022/04/17 10:50:53;;;;;;;2.90;2.40;;;17.40;51.00;;;;;;5045366;28;20224;-65
2022/04/17 10:53:59;;;;;;;5.10;2.67;;;18.00;50.50;;;;;;5054194;28;20220;-64
2022/04/17 10:57:02;;;;;;;3.80;3.05;;;16.30;49.50;;;;;;5050194;28;20220;-65
2022/04/17 10:59:51;;;;;;;3.55;3.25;;;14.50;52.90;;;;;;5037195;28;20330;-66
2022/04/17 11:02:41;;;;;;;4.22;3.03;;;13.20;55.80;;;;;;5054567;28;20220;-66
2022/04/17 11:08:52;;;;;;;3.58;3.13;;;18.20;52.00;;;;;;5061168;28;21345;-66
2022/04/17 11:11:43;;;;;;;3.38;3.08;;;20.30;48.80;;;;;;5037007;28;20591;-63
2022/04/17 11:14:32;;;;;;;4.38;3.20;;;18.20;49.80;;;;;;5053890;28;20326;-70
2022/04/17 11:17:22;;;;;;;3.90;3.45;;;19.20;50.00;;;;;;5057112;28;20273;-68
2022/04/17 11:20:14;;;;;;;4.18;3.10;;;18.20;50.50;;;;;;5047612;28;20708;-68
2022/04/17 11:23:03;;;;;;;3.97;2.97;;;18.30;50.80;;;;;;5050049;28;20325;-67
2022/04/17 11:25:53;;;;;;;3.30;3.00;;;19.20;48.10;;;;;;5058146;28;20231;-69
2022/04/17 11:28:42;;;;;;;3.83;3.33;;;21.60;47.20;;;;;;5048760;28;20244;-67
2022/04/17 11:31:34;;;;;;;3.45;3.15;;;22.50;44.60;;;;;;5054859;28;20604;-67
2022/04/17 11:34:22;;;;;;;2.88;2.67;;;17.60;47.80;;;;;;5053603;28;20606;-65
2022/04/17 11:37:12;;;;;;;4.18;3.20;;;20.40;48.70;;;;;;5054931;28;20709;-66
2022/04/17 11:40:10;;;;;;;3.55;2.90;;;21.10;44.10;;;;;;5051722;28;20227;-67
2022/04/17 11:43:14;;;;;;;3.70;3.30;;;20.30;43.90;;;;;;5061883;28;20243;-66
2022/04/17 11:46:06;;;;;;;3.17;2.88;;;16.50;48.00;;;;;;5057471;28;20235;-65
2022/04/17 11:49:01;;;;;;;3.38;3.05;;;14.40;50.50;;;;;;5053267;28;20220;-67
2022/04/17 11:51:50;;;;;;;2.92;2.63;;;14.50;52.90;;;;;;5054670;28;20288;-66
2022/04/17 11:54:41;;;;;;;3.40;2.58;;;15.20;52.30;;;;;;5063006;28;20215;-68
2022/04/17 11:57:30;;;;;;;3.20;2.30;;;14.90;52.40;;;;;;5054210;28;20216;-67
2022/04/17 12:00:18;;;;;;;3.38;2.50;;;15.10;51.40;;;;;;5060090;28;20263;-67
2022/04/17 12:03:09;;;;;;;3.40;2.40;;;14.70;52.50;;;;;;5053659;28;20228;-64
2022/04/17 12:05:59;;;;;;;3.13;2.38;;;14.20;53.00;;;;;;5049082;28;20301;-66
2022/04/17 12:08:49;;;;;;;3.95;2.75;;;14.10;53.40;;;;;;5058616;28;20233;-66
2022/04/17 12:11:44;;;;;;;4.07;2.60;;;14.30;53.40;;;;;;5051008;28;20227;-65
2022/04/17 12:14:33;;;;;;;5.50;2.80;;;12.20;54.80;;;;;;5054971;28;20215;-64
2022/04/17 12:17:22;;;;;;;2.47;2.25;;;12.20;56.20;;;;;;5057647;28;20713;-65
2022/04/17 12:20:13;;;;;;;2.42;2.22;;;11.90;56.10;;;;;;5056932;28;20743;-66
2022/04/17 12:23:01;;;;;;;3.90;2.45;;;12.20;56.60;;;;;;5067695;28;20355;-64
2022/04/17 12:25:51;;;;;;;3.00;2.60;;;12.40;56.90;;;;;;5055988;28;20219;-64
2022/04/17 12:28:41;;;;;;;3.65;2.40;;;12.70;56.70;;;;;;5057251;28;20217;-65
2022/04/17 12:31:30;;;;;;;3.55;2.45;;;13.20;55.50;;;;;;5055914;28;20224;-74
2022/04/17 12:34:19;;;;;;;3.60;2.20;;;12.20;56.00;;;;;;5057593;28;20221;-73
2022/04/17 12:37:20;;;;;;;2.35;1.90;;;11.80;55.70;;;;;;5054175;28;20307;-73
2022/04/17 12:40:10;;;;;;;2.33;2.08;;;11.80;56.20;;;;;;5067564;28;20255;-72
2022/04/17 12:43:15;;;;;;;3.30;2.25;;;11.60;55.30;;;;;;5054431;28;20239;-71
2022/04/17 12:46:06;;;;;;;3.45;2.30;;;11.50;55.60;;;;;;5055822;28;20247;-70
2022/04/17 12:49:06;;;;;;;2.60;2.00;;;11.60;54.90;;;;;;5052829;28;20622;-72
2022/04/17 12:51:56;;;;;;;3.08;2.10;;;12.00;55.90;;;;;;5057055;28;20280;-70
2022/04/17 12:54:45;;;;;;;2.72;1.98;;;13.00;55.00;;;;;;5051438;28;20236;-71
2022/04/17 12:57:34;;;;;;;3.40;2.20;;;12.40;55.00;;;;;;5055800;28;20221;-71
2022/04/17 13:00:22;;;;;;;3.22;2.20;;;12.00;56.10;;;;;;5055018;28;20227;-71
2022/04/17 13:03:14;;;;;;;3.20;2.45;;;11.60;57.00;;;;;;5052096;28;20217;-70
2022/04/17 13:06:05;;;;;;;3.05;2.15;;;11.10;57.80;;;;;;5054121;28;20599;-70
2022/04/17 13:09:07;;;;;;;3.35;2.35;;;11.00;58.40;;;;;;5053937;28;20239;-68
2022/04/17 13:11:56;;;;;;;2.95;2.05;;;11.20;58.10;;;;;;5046762;28;20796;-69
2022/04/17 13:14:56;;;;;;;2.75;2.20;;;11.20;57.20;;;;;;5061523;28;20235;-69
2022/04/17 13:17:46;;;;;;;5.45;2.25;;;11.10;57.00;;;;;;5051339;28;20247;-70
2022/04/17 13:20:36;;;;;;;4.15;1.85;;;11.20;56.60;;;;;;5055278;28;20216;-71
2022/04/17 13:23:24;;;;;;;2.50;2.10;;;11.20;56.40;;;;;;5061761;28;20234;-71
2022/04/17 13:26:15;;;;;;;2.22;1.70;;;11.50;56.40;;;;;;5078093;28;20294;-71
2022/04/17 13:29:03;;;;;;;2.55;1.98;;;11.90;55.30;;;;;;5072170;28;20223;-67
2022/04/17 13:31:52;;;;;;;5.03;2.40;;;12.30;55.30;;;;;;5057872;28;20222;-71
2022/04/17 13:34:42;;;;;;;3.92;2.30;;;12.60;55.30;;;;;;5071987;28;20352;-71
2022/04/17 13:40:38;;;;;;;4.45;2.03;;;12.30;55.40;;;;;;5067290;28;20238;-71
2022/04/17 13:43:26;;;;;;;3.25;1.90;;;12.30;55.90;;;;;;5074164;28;20465;-70
2022/04/17 13:46:15;;;;;;;3.20;2.25;;;12.20;56.40;;;;;;5058190;28;20220;-71
2022/04/17 13:49:04;;;;;;;2.80;2.00;;;12.10;56.70;;;;;;5056574;28;20361;-71
2022/04/17 13:51:53;;;;;;;2.25;1.92;;;11.50;56.50;;;;;;5075745;28;20301;-68
2022/04/17 13:54:43;;;;;;;3.05;1.95;;;11.30;56.90;;;;;;5059029;28;20576;-68
2022/04/17 13:57:32;;;;;;;2.47;1.63;;;11.10;56.70;;;;;;5067543;28;20220;-68
2022/04/17 14:00:21;;;;;;;3.88;1.85;;;11.30;57.00;;;;;;5062554;28;20231;-68
2022/04/17 14:03:10;;;;;;;2.17;1.70;;;11.60;56.70;;;;;;5075184;28;20251;-68
2022/04/17 14:06:00;;;;;;;1.67;1.58;;;12.10;56.40;;;;;;5065408;28;20221;-68
2022/04/17 14:08:50;;;;;;;1.85;1.58;;;11.70;56.10;;;;;;5057220;28;20257;-68
2022/04/17 14:11:41;;;;;;;4.50;1.85;;;12.00;56.20;;;;;;5075284;28;20307;-67
2022/04/17 14:14:30;;;;;;;4.68;2.08;;;11.70;56.40;;;;;;5052321;28;20227;-68
2022/04/17 14:17:19;;;;;;;3.38;1.77;;;11.70;56.40;;;;;;5067704;28;21231;-68
2022/04/17 14:20:08;;;;;;;2.40;1.80;;;11.80;56.60;;;;;;5074185;28;20353;-69
2022/04/17 14:23:02;;;;;;;2.78;1.73;;;12.10;56.10;;;;;;5060933;28;20264;-66
2022/04/17 14:25:50;;;;;;;3.00;1.90;;;12.10;56.30;;;;;;5073558;28;20717;-65
2022/04/17 14:28:42;;;;;;;3.60;2.00;;;12.10;56.40;;;;;;5065496;28;20285;-67
2022/04/17 14:31:30;;;;;;;3.38;1.75;;;11.90;56.20;;;;;;5058983;28;20230;-65
2022/04/17 14:34:19;;;;;;;2.45;1.80;;;11.70;56.50;;;;;;5073330;28;20223;-64
2022/04/17 14:37:08;;;;;;;2.72;1.70;;;11.70;56.00;;;;;;5065508;28;20231;-65
2022/04/17 14:40:00;;;;;;;2.58;1.60;;;11.40;55.80;;;;;;5073631;28;20278;-65
2022/04/17 14:42:48;;;;;;;4.00;1.60;;;11.70;55.90;;;;;;5074833;28;20219;-65
2022/04/17 14:45:44;;;;;;;2.60;1.50;;;11.40;56.40;;;;;;5056569;28;20220;-66
2022/04/17 14:48:33;;;;;;;2.40;1.90;;;11.50;56.30;;;;;;5069688;28;20231;-63
2022/04/17 14:51:22;;;;;;;2.10;1.73;;;11.30;56.50;;;;;;5078142;28;20686;-62
2022/04/17 14:54:13;;;;;;;2.17;1.70;;;11.20;56.80;;;;;;5056117;28;20219;-65
2022/04/17 14:57:02;;;;;;;2.38;1.52;;;11.20;57.00;;;;;;5073866;28;20255;-63
2022/04/17 14:59:51;;;;;;;2.08;1.50;;;11.30;56.10;;;;;;5074898;28;20239;-65
2022/04/17 15:02:41;;;;;;;3.25;2.00;;;11.60;55.90;;;;;;5045159;28;20227;-65
2022/04/17 15:05:30;;;;;;;2.22;1.58;;;11.80;56.00;;;;;;5071301;28;20356;-64
2022/04/17 15:08:18;;;;;;;1.80;1.40;;;11.70;55.10;;;;;;5073804;28;20452;-64
2022/04/17 15:11:08;;;;;;;2.05;1.67;;;12.10;55.30;;;;;;5071937;28;20223;-65
2022/04/17 15:13:57;;;;;;;3.40;1.75;;;12.10;55.40;;;;;;5066940;28;20228;-63